sensor_id;sensor_type;location;lat;lon;timestamp;pressure;altitude;pressure_sealevel;temperature;humidity
66887;BME280;67239;51.680;5.976;2023-07-31T00:00:30;100902.44;;;15.97;100.00
66887;BME280;67239;51.680;5.976;2023-07-31T00:02:57;100890.03;;;15.98;100.00
66887;BME280;67239;51.680;5.976;2023-07-31T00:05:25;100891.66;;;16.01;100.00
66887;BME280;67239;51.680;5.976;2023-07-31T00:07:52;100893.38;;;16.02;100.00
66887;BME280;67239;51.680;5.976;2023-07-31T00:10:20;100890.72;;;16.02;100.00
66887;BME280;67239;51.680;5.976;2023-07-31T00:12:48;100888.75;;;16.05;100.00
66887;BME280;67239;51.680;5.976;2023-07-31T00:15:16;100885.94;;;16.08;100.00
66887;BME280;67239;51.680;5.976;2023-07-31T00:17:43;100879.69;;;16.09;100.00
66887;BME280;67239;51.680;5.976;2023-07-31T00:20:11;100880.47;;;16.11;100.00
66887;BME280;67239;51.680;5.976;2023-07-31T00:22:38;100885.69;;;16.13;100.00
66887;BME280;67239;51.680;5.976;2023-07-31T00:25:05;100879.53;;;16.12;100.00
66887;BME280;67239;51.680;5.976;2023-07-31T00:27:35;100880.47;;;16.11;100.00
66887;BME280;67239;51.680;5.976;2023-07-31T00:30:02;100881.22;;;16.13;100.00
66887;BME280;67239;51.680;5.976;2023-07-31T00:32:32;100882.94;;;16.14;100.00
66887;BME280;67239;51.680;5.976;2023-07-31T00:34:59;100881.94;;;16.17;100.00
66887;BME280;67239;51.680;5.976;2023-07-31T00:37:26;100882.78;;;16.18;100.00
66887;BME280;67239;51.680;5.976;2023-07-31T00:39:55;100887.16;;;16.19;100.00
66887;BME280;67239;51.680;5.976;2023-07-31T00:42:23;100884.41;;;16.20;100.00
66887;BME280;67239;51.680;5.976;2023-07-31T00:44:51;100881.75;;;16.20;100.00
66887;BME280;67239;51.680;5.976;2023-07-31T00:47:18;100872.75;;;16.23;100.00
66887;BME280;67239;51.680;5.976;2023-07-31T00:49:46;100864.06;;;16.19;100.00
66887;BME280;67239;51.680;5.976;2023-07-31T00:52:13;100871.13;;;16.20;100.00
66887;BME280;67239;51.680;5.976;2023-07-31T00:54:40;100871.13;;;16.20;100.00
66887;BME280;67239;51.680;5.976;2023-07-31T00:57:07;100883.38;;;16.23;100.00
66887;BME280;67239;51.680;5.976;2023-07-31T00:59:35;100883.16;;;16.27;100.00
66887;BME280;67239;51.680;5.976;2023-07-31T01:02:02;100867.28;;;16.26;100.00
66887;BME280;67239;51.680;5.976;2023-07-31T01:04:31;100861.00;;;16.27;100.00
66887;BME280;67239;51.680;5.976;2023-07-31T01:10:09;100867.22;;;16.27;100.00
66887;BME280;67239;51.680;5.976;2023-07-31T01:12:45;100872.59;;;16.26;100.00
66887;BME280;67239;51.680;5.976;2023-07-31T01:15:13;100867.28;;;16.26;100.00
66887;BME280;67239;51.680;5.976;2023-07-31T01:17:42;100863.66;;;16.27;100.00
66887;BME280;67239;51.680;5.976;2023-07-31T01:20:12;100856.47;;;16.29;100.00
66887;BME280;67239;51.680;5.976;2023-07-31T01:26:18;100858.44;;;16.25;100.00
66887;BME280;67239;51.680;5.976;2023-07-31T01:32:01;100853.97;;;16.26;100.00
66887;BME280;67239;51.680;5.976;2023-07-31T01:34:31;100850.47;;;16.25;100.00
66887;BME280;67239;51.680;5.976;2023-07-31T01:36:59;100853.03;;;16.27;100.00
66887;BME280;67239;51.680;5.976;2023-07-31T01:39:26;100858.44;;;16.25;100.00
66887;BME280;67239;51.680;5.976;2023-07-31T01:41:53;100842.56;;;16.24;100.00
66887;BME280;67239;51.680;5.976;2023-07-31T01:44:20;100861.88;;;16.27;100.00
66887;BME280;67239;51.680;5.976;2023-07-31T01:46:47;100853.03;;;16.27;100.00
66887;BME280;67239;51.680;5.976;2023-07-31T01:49:14;100849.44;;;16.28;100.00
66887;BME280;67239;51.680;5.976;2023-07-31T01:51:41;100844.28;;;16.25;100.00
66887;BME280;67239;51.680;5.976;2023-07-31T01:54:09;100844.22;;;16.26;100.00
66887;BME280;67239;51.680;5.976;2023-07-31T01:56:37;100838.78;;;16.28;100.00
66887;BME280;67239;51.680;5.976;2023-07-31T01:59:05;100839.72;;;16.27;100.00
66887;BME280;67239;51.680;5.976;2023-07-31T02:01:32;100847.72;;;16.27;100.00
66887;BME280;67239;51.680;5.976;2023-07-31T02:04:01;100832.78;;;16.24;100.00
66887;BME280;67239;51.680;5.976;2023-07-31T02:06:29;100834.41;;;16.27;100.00
66887;BME280;67239;51.680;5.976;2023-07-31T02:08:56;100837.94;;;16.27;100.00
66887;BME280;67239;51.680;5.976;2023-07-31T02:11:23;100838.00;;;16.26;100.00
66887;BME280;67239;51.680;5.976;2023-07-31T02:13:50;100832.78;;;16.24;100.00
66887;BME280;67239;51.680;5.976;2023-07-31T02:16:17;100834.56;;;16.24;100.00
66887;BME280;67239;51.680;5.976;2023-07-31T02:18:45;100824.03;;;16.22;100.00
66887;BME280;67239;51.680;5.976;2023-07-31T02:21:12;100827.38;;;16.26;100.00
66887;BME280;67239;51.680;5.976;2023-07-31T02:23:39;100821.28;;;16.24;100.00
66887;BME280;67239;51.680;5.976;2023-07-31T02:26:06;100818.63;;;16.24;100.00
66887;BME280;67239;51.680;5.976;2023-07-31T02:28:34;100823.09;;;16.23;100.00
66887;BME280;67239;51.680;5.976;2023-07-31T02:31:01;100808.22;;;16.19;100.00
66887;BME280;67239;51.680;5.976;2023-07-31T02:33:28;100807.22;;;16.22;100.00
66887;BME280;67239;51.680;5.976;2023-07-31T02:35:55;100815.25;;;16.20;100.00
66887;BME280;67239;51.680;5.976;2023-07-31T02:38:23;100814.31;;;16.21;100.00
66887;BME280;67239;51.680;5.976;2023-07-31T02:40:50;100814.41;;;16.20;100.00
66887;BME280;67239;51.680;5.976;2023-07-31T02:43:17;100812.69;;;16.19;100.00
66887;BME280;67239;51.680;5.976;2023-07-31T02:45:44;100816.41;;;16.16;100.00
66887;BME280;67239;51.680;5.976;2023-07-31T02:48:11;100824.38;;;16.16;100.00
66887;BME280;67239;51.680;5.976;2023-07-31T02:50:38;100809.41;;;16.13;100.00
66887;BME280;67239;51.680;5.976;2023-07-31T02:53:05;100810.28;;;16.14;100.00
66887;BME280;67239;51.680;5.976;2023-07-31T02:55:32;100807.72;;;16.12;100.00
66887;BME280;67239;51.680;5.976;2023-07-31T02:58:00;100810.38;;;16.12;100.00
66887;BME280;67239;51.680;5.976;2023-07-31T03:00:29;100806.06;;;16.10;100.00
66887;BME280;67239;51.680;5.976;2023-07-31T03:02:57;100804.34;;;16.09;100.00
66887;BME280;67239;51.680;5.976;2023-07-31T03:05:24;100807.88;;;16.09;100.00
66887;BME280;67239;51.680;5.976;2023-07-31T03:07:51;100807.78;;;16.11;100.00
66887;BME280;67239;51.680;5.976;2023-07-31T03:10:18;100800.84;;;16.08;100.00
66887;BME280;67239;51.680;5.976;2023-07-31T03:12:48;100802.56;;;16.09;100.00
66887;BME280;67239;51.680;5.976;2023-07-31T03:15:15;100809.59;;;16.10;100.00
66887;BME280;67239;51.680;5.976;2023-07-31T03:17:42;100807.94;;;16.08;100.00
66887;BME280;67239;51.680;5.976;2023-07-31T03:20:10;100806.06;;;16.10;100.00
66887;BME280;67239;51.680;5.976;2023-07-31T03:22:37;100807.88;;;16.09;100.00
66887;BME280;67239;51.680;5.976;2023-07-31T03:25:05;100810.53;;;16.09;100.00
66887;BME280;67239;51.680;5.976;2023-07-31T03:27:33;100811.38;;;16.10;100.00
66887;BME280;67239;51.680;5.976;2023-07-31T03:30:00;100815.75;;;16.11;100.00
66887;BME280;67239;51.680;5.976;2023-07-31T03:32:29;100809.66;;;16.09;100.00
66887;BME280;67239;51.680;5.976;2023-07-31T03:34:57;100814.91;;;16.10;100.00
66887;BME280;67239;51.680;5.976;2023-07-31T03:37:24;100813.25;;;16.08;100.00
66887;BME280;67239;51.680;5.976;2023-07-31T03:39:53;100807.09;;;16.07;100.00
66887;BME280;67239;51.680;5.976;2023-07-31T03:42:20;100811.47;;;16.08;100.00
66887;BME280;67239;51.680;5.976;2023-07-31T03:44:50;100806.25;;;16.07;100.00
66887;BME280;67239;51.680;5.976;2023-07-31T03:47:17;100790.31;;;16.07;100.00
66887;BME280;67239;51.680;5.976;2023-07-31T03:49:44;100794.66;;;16.08;100.00
66887;BME280;67239;51.680;5.976;2023-07-31T03:52:11;100776.22;;;16.05;100.00
66887;BME280;67239;51.680;5.976;2023-07-31T03:54:38;100783.25;;;16.06;100.00
66887;BME280;67239;51.680;5.976;2023-07-31T03:57:05;100784.88;;;16.08;100.00
66887;BME280;67239;51.680;5.976;2023-07-31T03:59:33;100777.69;;;16.10;100.00
66887;BME280;67239;51.680;5.976;2023-07-31T04:02:00;100775.09;;;16.09;100.00
66887;BME280;67239;51.680;5.976;2023-07-31T04:04:27;100775.03;;;16.10;100.00
66887;BME280;67239;51.680;5.976;2023-07-31T04:06:54;100768.78;;;16.11;100.00
66887;BME280;67239;51.680;5.976;2023-07-31T04:09:22;100774.78;;;16.15;100.00
66887;BME280;67239;51.680;5.976;2023-07-31T04:11:49;100769.38;;;16.17;100.00
66887;BME280;67239;51.680;5.976;2023-07-31T04:14:16;100775.47;;;16.19;100.00
66887;BME280;67239;51.680;5.976;2023-07-31T04:16:43;100777.19;;;16.20;98.75
66887;BME280;67239;51.680;5.976;2023-07-31T04:19:10;100777.19;;;16.20;100.00
66887;BME280;67239;51.680;5.976;2023-07-31T04:21:37;100772.66;;;16.22;99.29
66887;BME280;67239;51.680;5.976;2023-07-31T04:24:04;100771.63;;;16.24;99.83
66887;BME280;67239;51.680;5.976;2023-07-31T04:26:31;100768.84;;;16.26;100.00
66887;BME280;67239;51.680;5.976;2023-07-31T04:28:59;100767.91;;;16.27;100.00
66887;BME280;67239;51.680;5.976;2023-07-31T04:31:26;100760.72;;;16.29;100.00
66887;BME280;67239;51.680;5.976;2023-07-31T04:33:53;100754.47;;;16.30;100.00
66887;BME280;67239;51.680;5.976;2023-07-31T04:36:20;100761.41;;;16.33;100.00
66887;BME280;67239;51.680;5.976;2023-07-31T04:38:47;100763.97;;;16.34;100.00
66887;BME280;67239;51.680;5.976;2023-07-31T04:41:14;100754.97;;;16.37;100.00
66887;BME280;67239;51.680;5.976;2023-07-31T04:43:41;100754.78;;;16.40;100.00
66887;BME280;67239;51.680;5.976;2023-07-31T04:46:08;100757.38;;;16.41;100.00
66887;BME280;67239;51.680;5.976;2023-07-31T04:48:35;100749.28;;;16.43;100.00
66887;BME280;67239;51.680;5.976;2023-07-31T04:51:02;100748.25;;;16.45;100.00
66887;BME280;67239;51.680;5.976;2023-07-31T04:53:30;100746.38;;;16.48;100.00
66887;BME280;67239;51.680;5.976;2023-07-31T04:56:00;100746.22;;;16.51;100.00
66887;BME280;67239;51.680;5.976;2023-07-31T04:58:27;100748.69;;;16.54;100.00
66887;BME280;67239;51.680;5.976;2023-07-31T05:00:56;100739.59;;;16.58;100.00
66887;BME280;67239;51.680;5.976;2023-07-31T05:03:24;100736.75;;;16.61;100.00
66887;BME280;67239;51.680;5.976;2023-07-31T05:05:51;100739.16;;;16.66;100.00
66887;BME280;67239;51.680;5.976;2023-07-31T05:08:18;100734.59;;;16.68;100.00
66887;BME280;67239;51.680;5.976;2023-07-31T05:10:45;100733.47;;;16.72;100.00
66887;BME280;67239;51.680;5.976;2023-07-31T05:13:12;100736.81;;;16.75;100.00
66887;BME280;67239;51.680;5.976;2023-07-31T05:15:40;100729.69;;;16.76;99.57
66887;BME280;67239;51.680;5.976;2023-07-31T05:18:09;100719.13;;;16.74;100.00
66887;BME280;67239;51.680;5.976;2023-07-31T05:20:36;100717.31;;;16.75;100.00
66887;BME280;67239;51.680;5.976;2023-07-31T05:23:03;100704.03;;;16.75;100.00
66887;BME280;67239;51.680;5.976;2023-07-31T05:25:30;100712.00;;;16.75;100.00
66887;BME280;67239;51.680;5.976;2023-07-31T05:27:57;100700.47;;;16.74;100.00
66887;BME280;67239;51.680;5.976;2023-07-31T05:30:25;100701.47;;;16.73;100.00
66887;BME280;67239;51.680;5.976;2023-07-31T05:32:52;100696.88;;;16.75;100.00
66887;BME280;67239;51.680;5.976;2023-07-31T05:35:20;100703.06;;;16.76;100.00
66887;BME280;67239;51.680;5.976;2023-07-31T05:37:47;100690.44;;;16.80;100.00
66887;BME280;67239;51.680;5.976;2023-07-31T05:40:14;100698.31;;;16.81;100.00
66887;BME280;67239;51.680;5.976;2023-07-31T05:42:43;100694.66;;;16.84;100.00
66887;BME280;67239;51.680;5.976;2023-07-31T05:45:10;100699.97;;;16.84;100.00
66887;BME280;67239;51.680;5.976;2023-07-31T05:47:37;100700.97;;;16.81;100.00
66887;BME280;67239;51.680;5.976;2023-07-31T05:50:04;100700.97;;;16.81;100.00
66887;BME280;67239;51.680;5.976;2023-07-31T05:52:32;100696.72;;;16.79;100.00
66887;BME280;67239;51.680;5.976;2023-07-31T05:55:02;100691.47;;;16.77;100.00
66887;BME280;67239;51.680;5.976;2023-07-31T05:57:31;100689.84;;;16.74;100.00
66887;BME280;67239;51.680;5.976;2023-07-31T05:59:58;100681.00;;;16.74;100.00
66887;BME280;67239;51.680;5.976;2023-07-31T06:02:25;100685.38;;;16.75;100.00
66887;BME280;67239;51.680;5.976;2023-07-31T06:04:55;100687.16;;;16.74;100.00
66887;BME280;67239;51.680;5.976;2023-07-31T06:07:23;100682.81;;;16.73;100.00
66887;BME280;67239;51.680;5.976;2023-07-31T06:09:51;100683.66;;;16.74;100.00
66887;BME280;67239;51.680;5.976;2023-07-31T06:12:21;100685.50;;;16.73;100.00
66887;BME280;67239;51.680;5.976;2023-07-31T06:14:48;100681.38;;;16.68;100.00
66887;BME280;67239;51.680;5.976;2023-07-31T06:17:15;100682.31;;;16.67;100.00
66887;BME280;67239;51.680;5.976;2023-07-31T06:19:42;100674.50;;;16.64;100.00
66887;BME280;67239;51.680;5.976;2023-07-31T06:22:09;100670.22;;;16.61;100.00
66887;BME280;67239;51.680;5.976;2023-07-31T06:24:36;100674.88;;;16.57;100.00
66887;BME280;67239;51.680;5.976;2023-07-31T06:27:04;100668.78;;;16.55;100.00
66887;BME280;67239;51.680;5.976;2023-07-31T06:29:32;100675.16;;;16.53;100.00
66887;BME280;67239;51.680;5.976;2023-07-31T06:31:59;100670.66;;;16.53;100.00
66887;BME280;67239;51.680;5.976;2023-07-31T06:34:30;100668.94;;;16.52;100.00
66887;BME280;67239;51.680;5.976;2023-07-31T06:36:57;100674.38;;;16.51;100.00
66887;BME280;67239;51.680;5.976;2023-07-31T06:39:24;100658.47;;;16.49;100.00
66887;BME280;67239;51.680;5.976;2023-07-31T06:41:51;100654.13;;;16.48;100.00
66887;BME280;67239;51.680;5.976;2023-07-31T06:44:19;100656.00;;;16.46;100.00
66887;BME280;67239;51.680;5.976;2023-07-31T06:46:46;100652.31;;;16.49;100.00
66887;BME280;67239;51.680;5.976;2023-07-31T06:49:16;100652.03;;;16.53;100.00
66887;BME280;67239;51.680;5.976;2023-07-31T06:51:43;100653.31;;;16.62;100.00
66887;BME280;67239;51.680;5.976;2023-07-31T06:54:11;100644.97;;;16.68;100.00
66887;BME280;67239;51.680;5.976;2023-07-31T06:56:38;100636.88;;;16.70;100.00
66887;BME280;67239;51.680;5.976;2023-07-31T06:59:07;100634.16;;;16.71;100.00
66887;BME280;67239;51.680;5.976;2023-07-31T07:01:35;100627.00;;;16.72;100.00
66887;BME280;67239;51.680;5.976;2023-07-31T07:04:02;100626.38;;;16.83;100.00
66887;BME280;67239;51.680;5.976;2023-07-31T07:06:29;100632.38;;;16.86;100.00
66887;BME280;67239;51.680;5.976;2023-07-31T07:08:56;100620.56;;;16.90;100.00
66887;BME280;67239;51.680;5.976;2023-07-31T07:11:23;100625.56;;;16.97;100.00
66887;BME280;67239;51.680;5.976;2023-07-31T07:13:51;100623.47;;;17.02;100.00
66887;BME280;67239;51.680;5.976;2023-07-31T07:16:18;100626.91;;;17.04;100.00
66887;BME280;67239;51.680;5.976;2023-07-31T07:18:46;100621.69;;;17.02;100.00
66887;BME280;67239;51.680;5.976;2023-07-31T07:21:29;100632.50;;;16.99;100.00
66887;BME280;67239;51.680;5.976;2023-07-31T07:23:57;100626.59;;;16.94;100.00
66887;BME280;67239;51.680;5.976;2023-07-31T07:26:24;100621.25;;;16.94;100.00
66887;BME280;67239;51.680;5.976;2023-07-31T07:28:51;100616.72;;;16.96;100.00
66887;BME280;67239;51.680;5.976;2023-07-31T07:31:18;100616.63;;;16.98;100.00
66887;BME280;67239;51.680;5.976;2023-07-31T07:33:46;100614.22;;;16.93;100.00
66887;BME280;67239;51.680;5.976;2023-07-31T07:36:13;100607.94;;;16.94;100.00
66887;BME280;67239;51.680;5.976;2023-07-31T07:38:40;100610.38;;;16.99;100.00
66887;BME280;67239;51.680;5.976;2023-07-31T07:41:08;100610.25;;;17.00;100.00
66887;BME280;67239;51.680;5.976;2023-07-31T07:43:35;100611.03;;;17.02;100.00
66887;BME280;67239;51.680;5.976;2023-07-31T07:46:02;100604.53;;;17.06;100.00
66887;BME280;67239;51.680;5.976;2023-07-31T07:48:29;100606.09;;;17.11;100.00
66887;BME280;67239;51.680;5.976;2023-07-31T07:50:56;100606.63;;;17.16;100.00
66887;BME280;67239;51.680;5.976;2023-07-31T07:53:24;100608.06;;;17.21;100.00
66887;BME280;67239;51.680;5.976;2023-07-31T07:55:52;100599.06;;;17.24;100.00
66887;BME280;67239;51.680;5.976;2023-07-31T07:58:19;100602.16;;;17.31;100.00
66887;BME280;67239;51.680;5.976;2023-07-31T08:00:52;100605.59;;;17.33;100.00
66887;BME280;67239;51.680;5.976;2023-07-31T08:03:25;100601.88;;;17.35;100.00
66887;BME280;67239;51.680;5.976;2023-07-31T08:06:10;100608.91;;;17.36;100.00
66887;BME280;67239;51.680;5.976;2023-07-31T08:08:38;100599.97;;;17.37;100.00
66887;BME280;67239;51.680;5.976;2023-07-31T08:11:06;100599.13;;;17.37;100.00
66887;BME280;67239;51.680;5.976;2023-07-31T08:13:34;100595.72;;;17.35;100.00
66887;BME280;67239;51.680;5.976;2023-07-31T08:16:04;100592.28;;;17.33;100.00
66887;BME280;67239;51.680;5.976;2023-07-31T08:18:39;100602.47;;;17.26;100.00
66887;BME280;67239;51.680;5.976;2023-07-31T08:21:07;100598.78;;;17.29;100.00
66887;BME280;67239;51.680;5.976;2023-07-31T08:23:35;100604.16;;;17.27;100.00
66887;BME280;67239;51.680;5.976;2023-07-31T08:26:04;100607.13;;;17.22;100.00
66887;BME280;67239;51.680;5.976;2023-07-31T08:28:31;100600.84;;;17.23;100.00
66887;BME280;67239;51.680;5.976;2023-07-31T08:31:07;100601.72;;;17.24;100.00
66887;BME280;67239;51.680;5.976;2023-07-31T08:33:40;100602.47;;;17.26;100.00
66887;BME280;67239;51.680;5.976;2023-07-31T08:36:11;100607.78;;;17.26;100.00
66887;BME280;67239;51.680;5.976;2023-07-31T08:38:38;100599.59;;;17.29;100.00
66887;BME280;67239;51.680;5.976;2023-07-31T08:41:11;100600.94;;;17.36;100.00
66887;BME280;67239;51.680;5.976;2023-07-31T08:43:49;100599.50;;;17.45;100.00
66887;BME280;67239;51.680;5.976;2023-07-31T08:46:20;100599.03;;;17.53;100.00
66887;BME280;67239;51.680;5.976;2023-07-31T08:48:51;100595.19;;;17.57;100.00
66887;BME280;67239;51.680;5.976;2023-07-31T08:51:22;100595.84;;;17.61;100.00
66887;BME280;67239;51.680;5.976;2023-07-31T08:53:49;100597.56;;;17.62;100.00
66887;BME280;67239;51.680;5.976;2023-07-31T08:56:17;100600.88;;;17.65;100.00
66887;BME280;67239;51.680;5.976;2023-07-31T08:58:46;100593.88;;;17.64;100.00
66887;BME280;67239;51.680;5.976;2023-07-31T09:01:14;100603.66;;;17.64;100.00
66887;BME280;67239;51.680;5.976;2023-07-31T09:03:46;100604.53;;;17.64;100.00
66887;BME280;67239;51.680;5.976;2023-07-31T09:06:20;100599.94;;;17.66;100.00
66887;BME280;67239;51.680;5.976;2023-07-31T09:08:54;100602.59;;;17.66;100.00
66887;BME280;67239;51.680;5.976;2023-07-31T09:11:28;100602.59;;;17.66;100.00
66887;BME280;67239;51.680;5.976;2023-07-31T09:13:57;100610.72;;;17.65;100.00
66887;BME280;67239;51.680;5.976;2023-07-31T09:16:28;100602.81;;;17.63;100.00
66887;BME280;67239;51.680;5.976;2023-07-31T09:19:00;100605.56;;;17.62;100.00
66887;BME280;67239;51.680;5.976;2023-07-31T09:21:31;100587.13;;;17.59;100.00
66887;BME280;67239;51.680;5.976;2023-07-31T09:23:58;100590.81;;;17.56;100.00
66887;BME280;67239;51.680;5.976;2023-07-31T09:26:31;100592.53;;;17.57;100.00
66887;BME280;67239;51.680;5.976;2023-07-31T09:29:06;100587.31;;;17.56;100.00
66887;BME280;67239;51.680;5.976;2023-07-31T09:31:50;100596.44;;;17.51;100.00
66887;BME280;67239;51.680;5.976;2023-07-31T09:34:17;100588.00;;;17.45;100.00
66887;BME280;67239;51.680;5.976;2023-07-31T09:36:51;100595.22;;;17.43;100.00
66887;BME280;67239;51.680;5.976;2023-07-31T09:39:24;100579.31;;;17.41;100.00
66887;BME280;67239;51.680;5.976;2023-07-31T09:41:55;100583.69;;;17.42;100.00
66887;BME280;67239;51.680;5.976;2023-07-31T09:44:41;100586.38;;;17.42;100.00
66887;BME280;67239;51.680;5.976;2023-07-31T09:47:22;100581.16;;;17.41;100.00
66887;BME280;67239;51.680;5.976;2023-07-31T09:49:55;100575.72;;;17.42;100.00
66887;BME280;67239;51.680;5.976;2023-07-31T09:52:22;100569.44;;;17.43;100.00
66887;BME280;67239;51.680;5.976;2023-07-31T09:54:49;100561.34;;;17.45;100.00
66887;BME280;67239;51.680;5.976;2023-07-31T09:57:21;100568.19;;;17.49;100.00
66887;BME280;67239;51.680;5.976;2023-07-31T09:59:52;100574.16;;;17.52;100.00
66887;BME280;67239;51.680;5.976;2023-07-31T10:02:21;100565.69;;;17.60;100.00
66887;BME280;67239;51.680;5.976;2023-07-31T10:04:50;100572.16;;;17.70;100.00
66887;BME280;67239;51.680;5.976;2023-07-31T10:07:18;100561.19;;;17.75;100.00
66887;BME280;67239;51.680;5.976;2023-07-31T10:09:53;100572.69;;;17.76;100.00
66887;BME280;67239;51.680;5.976;2023-07-31T10:12:23;100568.88;;;17.80;100.00
66887;BME280;67239;51.680;5.976;2023-07-31T10:14:59;100571.25;;;17.84;100.00
66887;BME280;67239;51.680;5.976;2023-07-31T10:17:29;100563.41;;;17.96;100.00
66887;BME280;67239;51.680;5.976;2023-07-31T10:19:58;100569.25;;;18.15;100.00
66887;BME280;67239;51.680;5.976;2023-07-31T10:22:31;100575.81;;;18.37;100.00
66887;BME280;67239;51.680;5.976;2023-07-31T10:24:59;100568.38;;;18.55;100.00
66887;BME280;67239;51.680;5.976;2023-07-31T10:27:27;100564.66;;;18.71;100.00
66887;BME280;67239;51.680;5.976;2023-07-31T10:29:57;100557.84;;;18.80;100.00
66887;BME280;67239;51.680;5.976;2023-07-31T10:32:28;100563.47;;;18.88;100.00
66887;BME280;67239;51.680;5.976;2023-07-31T10:34:57;100550.59;;;18.95;98.82
66887;BME280;67239;51.680;5.976;2023-07-31T10:37:36;100560.09;;;18.99;99.13
66887;BME280;67239;51.680;5.976;2023-07-31T10:40:06;100564.88;;;19.06;99.64
66887;BME280;67239;51.680;5.976;2023-07-31T10:42:50;100561.34;;;19.19;98.87
66887;BME280;67239;51.680;5.976;2023-07-31T10:48:15;100546.63;;;19.50;97.97
66887;BME280;67239;51.680;5.976;2023-07-31T10:50:55;100546.03;;;19.71;97.35
66887;BME280;67239;51.680;5.976;2023-07-31T10:53:28;100545.97;;;19.97;95.71
66887;BME280;67239;51.680;5.976;2023-07-31T10:56:08;100542.75;;;20.16;92.77
66887;BME280;67239;51.680;5.976;2023-07-31T10:58:44;100536.91;;;20.11;92.95
66887;BME280;67239;51.680;5.976;2023-07-31T11:01:12;100539.19;;;20.04;92.53
66887;BME280;67239;51.680;5.976;2023-07-31T11:03:48;100541.84;;;20.04;91.99
66887;BME280;67239;51.680;5.976;2023-07-31T11:06:19;100534.03;;;20.01;93.66
66887;BME280;67239;51.680;5.976;2023-07-31T11:08:50;100540.47;;;19.98;91.79
66887;BME280;67239;51.680;5.976;2023-07-31T11:11:19;100531.72;;;19.96;91.98
66887;BME280;67239;51.680;5.976;2023-07-31T11:13:52;100530.25;;;19.92;92.66
66887;BME280;67239;51.680;5.976;2023-07-31T11:16:22;100527.94;;;19.88;93.78
66887;BME280;67239;51.680;5.976;2023-07-31T11:18:53;100530.50;;;19.76;93.30
66887;BME280;67239;51.680;5.976;2023-07-31T11:21:24;100543.53;;;19.57;90.97
66887;BME280;67239;51.680;5.976;2023-07-31T11:23:55;100547.22;;;19.43;91.95
66887;BME280;67239;51.680;5.976;2023-07-31T11:26:27;100550.44;;;19.35;93.74
66887;BME280;67239;51.680;5.976;2023-07-31T11:28:56;100547.13;;;19.31;92.04
66887;BME280;67239;51.680;5.976;2023-07-31T11:31:25;100538.88;;;19.34;93.12
66887;BME280;67239;51.680;5.976;2023-07-31T11:34:04;100532.75;;;19.45;94.27
66887;BME280;67239;51.680;5.976;2023-07-31T11:36:34;100531.53;;;19.62;93.00
66887;BME280;67239;51.680;5.976;2023-07-31T11:39:08;100532.22;;;19.77;90.06
66887;BME280;67239;51.680;5.976;2023-07-31T11:41:42;100542.19;;;19.99;89.80
66887;BME280;67239;51.680;5.976;2023-07-31T11:44:10;100536.19;;;20.20;92.29
66887;BME280;67239;51.680;5.976;2023-07-31T11:46:56;100532.72;;;20.42;90.14
66887;BME280;67239;51.680;5.976;2023-07-31T11:49:23;100534.94;;;20.48;88.43
66887;BME280;67239;51.680;5.976;2023-07-31T11:51:53;100535.94;;;20.59;86.00
66887;BME280;67239;51.680;5.976;2023-07-31T11:54:21;100524.75;;;20.65;86.51
66887;BME280;67239;51.680;5.976;2023-07-31T11:56:48;100519.56;;;20.75;86.01
66887;BME280;67239;51.680;5.976;2023-07-31T11:59:18;100521.38;;;20.86;85.36
66887;BME280;67239;51.680;5.976;2023-07-31T12:01:45;100522.72;;;20.91;86.26
66887;BME280;67239;51.680;5.976;2023-07-31T12:04:13;100517.22;;;20.93;84.84
66887;BME280;67239;51.680;5.976;2023-07-31T12:06:40;100512.00;;;21.14;85.42
66887;BME280;67239;51.680;5.976;2023-07-31T12:09:08;100514.03;;;21.22;85.83
66887;BME280;67239;51.680;5.976;2023-07-31T12:11:46;100521.38;;;21.31;83.79
66887;BME280;67239;51.680;5.976;2023-07-31T12:14:29;100520.50;;;21.31;84.07
66887;BME280;67239;51.680;5.976;2023-07-31T12:16:59;100527.34;;;21.23;84.44
66887;BME280;67239;51.680;5.976;2023-07-31T12:19:30;100523.09;;;21.09;83.47
66887;BME280;67239;51.680;5.976;2023-07-31T12:22:02;100518.56;;;20.99;83.67
66887;BME280;67239;51.680;5.976;2023-07-31T12:24:29;100524.19;;;20.96;84.11
66887;BME280;67239;51.680;5.976;2023-07-31T12:26:57;100523.84;;;20.89;85.03
66887;BME280;67239;51.680;5.976;2023-07-31T12:29:33;100529.41;;;20.74;82.88
66887;BME280;67239;51.680;5.976;2023-07-31T12:32:23;100524.25;;;20.60;84.54
66887;BME280;67239;51.680;5.976;2023-07-31T12:34:52;100536.00;;;20.46;84.55
66887;BME280;67239;51.680;5.976;2023-07-31T12:37:21;100528.81;;;20.35;84.06
66887;BME280;67239;51.680;5.976;2023-07-31T12:39:48;100517.94;;;20.25;85.29
66887;BME280;67239;51.680;5.976;2023-07-31T12:42:17;100512.25;;;20.19;86.00
66887;BME280;67239;51.680;5.976;2023-07-31T12:44:45;100514.16;;;20.16;85.82
66887;BME280;67239;51.680;5.976;2023-07-31T12:47:12;100499.09;;;20.15;86.18
66887;BME280;67239;51.680;5.976;2023-07-31T12:49:42;100499.47;;;20.22;86.26
66887;BME280;67239;51.680;5.976;2023-07-31T12:52:09;100495.00;;;20.34;87.23
66887;BME280;67239;51.680;5.976;2023-07-31T12:54:36;100489.91;;;20.54;86.93
66887;BME280;67239;51.680;5.976;2023-07-31T12:57:05;100493.09;;;20.70;87.97
66887;BME280;67239;51.680;5.976;2023-07-31T12:59:32;100495.44;;;20.86;88.11
66887;BME280;67239;51.680;5.976;2023-07-31T13:01:59;100490.72;;;20.90;84.35
66887;BME280;67239;51.680;5.976;2023-07-31T13:04:27;100484.00;;;20.84;84.06